Terminal Aerodrome Forecast
Issued by NWS

Home | Current Version | Previous Version | Text Only | Print | Product List | Glossary On
Versions: 1 2 3 4 5 6 7 8 9 10 11 12
989
FTUS42 KMLB 252325
TAFTIX
TAF
KTIX 252325Z 2600/2624 06010KT P6SM SCT025
     FM261400 03004KT P6SM SCT025
     FM261800 08008KT P6SM VCTS SCT030CB BKN100
     FM262100 10008KT P6SM SCT030 BKN200
      AMD NOT SKED 2601/2611=

USA.gov is the U.S. government's official web portal to all federal, state and local government web resources and services.